Time;durP1;ratioP1;P1;durP2;ratioP2;P2;SDS_P1;SDS_P2;PMS_P1;PMS_P2;Temp;Humidity;BMP_temperature;BMP_pressure;BME280_temperature;BME280_humidity;BME280_pressure;Samples;Min_cycle;Max_cycle;Signal;HPM_P1;HPM_P2
2022/09/01 00:02:22;;;;;;;9.85;2.80;;;;;;;14.92;69.90;101875.03;5050832;28;20467;-73
2022/09/01 00:04:47;;;;;;;7.93;2.58;;;;;;;14.89;69.99;101877.97;5052224;28;20032;-73
2022/09/01 00:07:13;;;;;;;11.45;3.25;;;;;;;14.89;68.27;101872.56;5048554;28;20041;-73
2022/09/01 00:09:39;;;;;;;6.95;2.78;;;;;;;14.91;70.20;101870.59;5044626;28;20495;-73
2022/09/01 00:12:07;;;;;;;11.18;2.85;;;;;;;14.89;70.73;101869.84;5049912;28;20025;-73
2022/09/01 00:14:36;;;;;;;6.28;2.42;;;;;;;14.89;69.06;101872.56;5051462;28;20027;-73
2022/09/01 00:17:06;;;;;;;8.45;2.83;;;;;;;14.91;70.58;101862.47;5046649;28;20030;-73
2022/09/01 00:19:32;;;;;;;8.15;2.80;;;;;;;14.88;69.54;101864.56;5046058;28;20457;-73
2022/09/01 00:21:58;;;;;;;6.93;2.38;;;;;;;14.83;66.66;101870.28;5050729;28;20116;-73
2022/09/01 00:24:24;;;;;;;8.38;2.92;;;;;;;14.78;70.09;101856.25;5045047;28;20136;-73
2022/09/01 00:26:50;;;;;;;8.23;3.05;;;;;;;14.73;68.10;101858.41;5043019;28;20025;-73
2022/09/01 00:29:16;;;;;;;12.35;3.08;;;;;;;14.72;70.20;101865.69;5051715;28;20074;-73
2022/09/01 00:31:41;;;;;;;11.70;3.22;;;;;;;14.66;69.68;101867.00;5050736;28;20036;-73
2022/09/01 00:34:07;;;;;;;6.32;2.40;;;;;;;14.64;68.50;101866.28;5052458;28;20025;-73
2022/09/01 00:36:32;;;;;;;6.40;2.65;;;;;;;14.61;68.67;101869.22;5043258;28;20484;-73
2022/09/01 00:38:58;;;;;;;8.90;2.67;;;;;;;14.60;71.62;101872.84;5042373;28;20040;-73
2022/09/01 00:41:26;;;;;;;7.30;2.55;;;;;;;14.61;71.14;101868.28;5043193;28;20401;-73
2022/09/01 00:43:58;;;;;;;6.13;2.58;;;;;;;14.62;69.64;101870.06;5035731;28;20350;-73
2022/09/01 00:46:45;;;;;;;9.73;3.03;;;;;;;14.66;71.06;101871.56;5050527;28;20029;-73
2022/09/01 00:49:15;;;;;;;8.32;2.42;;;;;;;14.62;71.35;101865.50;5035143;28;20025;-73
2022/09/01 00:51:46;;;;;;;6.82;2.45;;;;;;;14.64;71.51;101865.38;5050922;28;20035;-73
2022/09/01 00:54:23;;;;;;;7.90;2.55;;;;;;;14.64;70.53;101868.09;5049240;28;20147;-73
2022/09/01 00:56:50;;;;;;;8.43;2.78;;;;;;;14.66;70.64;101867.00;5049184;28;20111;-73
2022/09/01 00:59:19;;;;;;;7.47;2.88;;;;;;;14.67;73.19;101867.84;5050049;28;20035;-73
2022/09/01 01:01:44;;;;;;;5.10;2.20;;;;;;;14.67;71.26;101857.03;5050637;28;20047;-73
2022/09/01 01:04:16;;;;;;;5.07;2.50;;;;;;;14.64;71.15;101858.16;5050742;28;20433;-73
2022/09/01 01:06:48;;;;;;;10.68;2.75;;;;;;;14.64;72.24;101868.09;5032610;28;20032;-73
2022/09/01 01:09:14;;;;;;;9.07;2.80;;;;;;;14.65;73.22;101859.00;5060094;28;20032;-73
2022/09/01 01:11:40;;;;;;;7.22;2.83;;;;;;;14.64;71.97;101855.44;5048699;28;20029;-73
2022/09/01 01:14:11;;;;;;;18.08;2.95;;;;;;;14.64;72.47;101855.44;5049236;28;20396;-73
2022/09/01 01:16:42;;;;;;;9.23;2.88;;;;;;;14.65;72.60;101853.59;5041105;28;20041;-73
2022/09/01 01:25:00;;;;;;;9.90;2.67;;;;;;;14.57;71.58;101855.97;5048071;28;20086;-73
2022/09/01 01:27:31;;;;;;;10.60;3.20;;;;;;;14.56;72.37;101855.09;5049205;28;20039;-73
2022/09/01 01:29:56;;;;;;;8.73;3.03;;;;;;;14.53;74.03;101857.19;5041242;28;20031;-73
2022/09/01 01:32:21;;;;;;;9.25;3.00;;;;;;;14.55;70.84;101852.53;5046817;28;20037;-73
2022/09/01 01:34:48;;;;;;;8.68;3.10;;;;;;;14.56;72.46;101860.53;5054984;28;20064;-73
2022/09/01 01:37:13;;;;;;;6.80;2.92;;;;;;;14.55;73.95;101853.38;5045961;28;20471;-73
2022/09/01 01:39:42;;;;;;;5.80;2.42;;;;;;;14.49;74.28;101854.72;5037791;28;20052;-73
2022/09/01 01:42:08;;;;;;;9.25;2.92;;;;;;;14.45;73.09;101864.03;5039359;28;20098;-73
2022/09/01 01:44:36;;;;;;;9.25;3.10;;;;;;;14.43;74.10;101854.28;5040467;28;20044;-73
2022/09/01 01:47:07;;;;;;;9.57;2.83;;;;;;;14.42;73.20;101860.66;5048365;28;20047;-73
2022/09/01 01:49:33;;;;;;;11.75;3.67;;;;;;;14.43;73.81;101863.25;5050732;28;20027;-73
2022/09/01 01:51:58;;;;;;;9.07;2.95;;;;;;;14.41;73.00;101864.38;5044596;28;20029;-72
2022/09/01 01:54:25;;;;;;;8.43;3.17;;;;;;;14.35;74.62;101862.97;5049107;28;20024;-72
2022/09/01 01:56:51;;;;;;;9.82;3.13;;;;;;;14.32;73.71;101866.75;5046711;28;20020;-72
2022/09/01 01:59:18;;;;;;;10.18;3.28;;;;;;;14.33;72.81;101864.91;5046237;28;20028;-72
2022/09/01 02:01:47;;;;;;;10.80;3.28;;;;;;;14.31;73.82;101865.03;5048559;28;20082;-72
2022/09/01 02:04:15;;;;;;;8.23;3.03;;;;;;;14.28;73.76;101864.41;5048746;28;20040;-73
2022/09/01 02:06:44;;;;;;;6.60;3.00;;;;;;;14.25;74.65;101862.78;5048966;28;20055;-73
2022/09/01 02:09:11;;;;;;;5.00;2.90;;;;;;;14.27;73.75;101860.81;5047427;28;20051;-73
2022/09/01 02:11:36;;;;;;;8.73;3.28;;;;;;;14.24;74.94;101860.19;5046886;28;20025;-73
2022/09/01 02:14:03;;;;;;;6.82;3.00;;;;;;;14.20;74.84;101866.78;5048470;28;20056;-73
2022/09/01 02:16:31;;;;;;;5.60;2.97;;;;;;;14.19;75.14;101867.75;5043951;28;20440;-73
2022/09/01 02:18:58;;;;;;;11.57;3.75;;;;;;;14.15;75.03;101865.28;5039013;28;20032;-73
2022/09/01 02:21:26;;;;;;;8.85;3.33;;;;;;;14.16;73.09;101868.84;5046255;28;20029;-73
2022/09/01 02:24:01;;;;;;;10.98;3.08;;;;;;;14.15;75.22;101867.13;5049763;28;20102;-73
2022/09/01 02:26:33;;;;;;;12.68;3.50;;;;;;;14.14;74.79;101870.78;5044867;28;20029;-73
2022/09/01 02:29:03;;;;;;;7.65;3.33;;;;;;;14.11;74.90;101860.19;5041359;28;20037;-73
2022/09/01 02:31:30;;;;;;;8.63;3.38;;;;;;;14.13;75.86;101863.69;5046833;28;20111;-73
2022/09/01 02:33:56;;;;;;;8.25;3.00;;;;;;;14.10;75.29;101858.47;5029046;28;20021;-73
2022/09/01 02:36:24;;;;;;;9.70;3.30;;;;;;;14.09;75.11;101860.31;5044406;28;20053;-73
2022/09/01 02:38:50;;;;;;;9.65;3.40;;;;;;;14.07;74.46;101861.41;5041151;28;20480;-72
2022/09/01 02:41:21;;;;;;;9.55;3.40;;;;;;;14.03;75.21;101858.06;5044033;28;20469;-73
2022/09/01 02:43:47;;;;;;;10.35;3.17;;;;;;;14.02;74.75;101860.88;5048293;28;20507;-73
2022/09/01 02:46:14;;;;;;;6.55;3.00;;;;;;;13.98;75.04;101854.81;5047401;28;20033;-73
2022/09/01 02:48:44;;;;;;;9.15;2.88;;;;;;;13.95;75.39;101866.72;5045302;28;20036;-73
2022/09/01 02:51:14;;;;;;;11.10;3.78;;;;;;;13.93;74.12;101859.69;5047917;28;20037;-73
2022/09/01 02:53:41;;;;;;;9.82;3.50;;;;;;;13.90;75.86;101858.06;5038680;28;20121;-73
2022/09/01 02:56:10;;;;;;;12.18;3.75;;;;;;;13.93;75.54;101855.16;5050666;28;20028;-73
2022/09/01 02:58:44;;;;;;;9.55;3.03;;;;;;;13.90;75.28;101849.09;5043085;28;20025;-73
2022/09/01 03:01:12;;;;;;;10.60;3.47;;;;;;;13.89;75.92;101850.06;5052276;28;20048;-73
2022/09/01 03:03:38;;;;;;;13.00;3.88;;;;;;;13.85;75.80;101844.03;5043974;28;20039;-73
2022/09/01 03:06:03;;;;;;;9.27;3.28;;;;;;;13.85;76.76;101835.94;5049488;28;20029;-73
2022/09/01 03:08:35;;;;;;;8.90;3.50;;;;;;;13.79;75.57;101839.94;5051970;28;20021;-73
2022/09/01 03:11:00;;;;;;;8.30;3.58;;;;;;;13.78;75.63;101838.19;5043224;28;20412;-73
2022/09/01 03:13:26;;;;;;;9.63;3.83;;;;;;;13.75;75.92;101840.25;5049365;28;20037;-73
2022/09/01 03:15:51;;;;;;;9.80;3.65;;;;;;;13.74;74.69;101839.38;5050890;28;20037;-73
2022/09/01 03:18:17;;;;;;;8.63;3.38;;;;;;;13.74;75.40;101842.06;5052476;28;20033;-73
2022/09/01 03:20:45;;;;;;;9.55;3.10;;;;;;;13.72;76.12;101845.84;5051805;28;20052;-73
2022/09/01 03:23:14;;;;;;;13.00;3.63;;;;;;;13.71;75.99;101846.84;5046437;28;20461;-73
2022/09/01 03:25:42;;;;;;;13.10;3.55;;;;;;;13.71;75.93;101846.84;5045614;28;20473;-73
2022/09/01 03:28:08;;;;;;;10.23;3.55;;;;;;;13.69;75.76;101846.06;5041318;28;20388;-73
2022/09/01 03:30:39;;;;;;;12.60;4.20;;;;;;;13.64;75.29;101852.66;5049734;28;20060;-73
2022/09/01 03:33:05;;;;;;;9.75;3.80;;;;;;;13.60;75.54;101851.19;5048153;28;20119;-73
2022/09/01 03:35:30;;;;;;;10.38;3.67;;;;;;;13.59;76.08;101851.28;5044828;28;20455;-73
2022/09/01 03:38:00;;;;;;;8.80;3.40;;;;;;;13.61;76.33;101847.47;5046700;28;20489;-73
2022/09/01 03:40:35;;;;;;;10.98;3.75;;;;;;;13.61;75.85;101842.06;5042828;28;20068;-73
2022/09/01 03:43:03;;;;;;;10.05;3.72;;;;;;;13.57;75.89;101845.09;5048983;28;20135;-73
2022/09/01 03:45:29;;;;;;;8.18;3.38;;;;;;;13.55;75.31;101845.22;5051674;28;20029;-73
2022/09/01 03:47:55;;;;;;;11.10;3.90;;;;;;;13.53;75.72;101839.06;5051377;28;20027;-73
2022/09/01 03:50:23;;;;;;;9.18;3.65;;;;;;;13.51;75.73;101838.28;5049705;28;20388;-73
2022/09/01 03:52:51;;;;;;;11.85;3.60;;;;;;;13.48;76.71;101840.34;5046132;28;20481;-73
2022/09/01 03:55:22;;;;;;;9.50;4.00;;;;;;;13.44;76.30;101842.38;5043583;28;20481;-73
2022/09/01 03:57:54;;;;;;;11.82;3.42;;;;;;;13.40;76.25;101841.75;5041746;28;20032;-73
2022/09/01 04:00:23;;;;;;;10.68;3.95;;;;;;;13.39;76.33;101845.41;5053126;28;20423;-73
2022/09/01 04:02:50;;;;;;;10.75;4.00;;;;;;;13.38;75.89;101832.03;5049751;28;20039;-73
2022/09/01 04:05:27;;;;;;;9.60;3.83;;;;;;;13.34;76.80;101839.50;5049712;28;20111;-73
2022/09/01 04:07:54;;;;;;;12.85;4.25;;;;;;;13.34;76.58;101834.09;5049642;28;20109;-73
2022/09/01 04:10:21;;;;;;;12.52;4.00;;;;;;;13.34;77.10;101838.56;5042146;28;20388;-73
2022/09/01 04:12:47;;;;;;;17.17;3.97;;;;;;;13.31;77.14;101839.66;5043359;28;20045;-73
2022/09/01 04:15:13;;;;;;;9.93;3.50;;;;;;;13.29;76.85;101838.91;5034090;28;20087;-73
2022/09/01 04:20:23;;;;;;;10.35;3.70;;;;;;;13.27;76.69;101833.59;5049590;28;20036;-73
2022/09/01 04:22:50;;;;;;;11.23;4.18;;;;;;;13.25;77.10;101840.94;5048168;28;20045;-73
2022/09/01 04:25:21;;;;;;;10.25;3.72;;;;;;;13.27;77.42;101840.84;5048001;28;20039;-73
2022/09/01 04:27:47;;;;;;;12.85;4.07;;;;;;;13.29;76.91;101841.59;5050414;28;20025;-73
2022/09/01 04:30:13;;;;;;;11.95;3.85;;;;;;;13.32;77.13;101835.13;5048435;28;20558;-72
2022/09/01 04:32:39;;;;;;;10.90;3.53;;;;;;;13.40;76.45;101840.91;5045707;28;20395;-72
2022/09/01 04:35:06;;;;;;;12.40;4.38;;;;;;;13.43;76.49;101841.53;5044068;28;20060;-72
2022/09/01 04:37:34;;;;;;;11.38;4.22;;;;;;;13.51;76.16;101845.53;5034681;28;20087;-72
2022/09/01 04:39:59;;;;;;;11.20;3.97;;;;;;;13.54;75.85;101845.31;5050428;28;20553;-72
2022/09/01 04:42:27;;;;;;;12.73;4.05;;;;;;;13.58;77.20;101836.91;5033838;28;20034;-72
2022/09/01 04:44:55;;;;;;;10.38;4.13;;;;;;;13.63;76.34;101840.16;5046200;28;20024;-72
2022/09/01 04:47:28;;;;;;;12.05;3.95;;;;;;;13.68;76.83;101841.66;5051123;28;20028;-72
2022/09/01 04:49:58;;;;;;;11.73;4.15;;;;;;;13.71;75.13;101841.44;5049038;28;20063;-73
2022/09/01 04:52:24;;;;;;;;;;;;;;;13.81;75.08;101842.53;5051088;28;20033;-73
2022/09/01 04:54:49;;;;;;;11.88;3.75;;;;;;;13.76;74.50;101844.66;5042233;28;20386;-73
2022/09/01 04:57:15;;;;;;;10.73;3.78;;;;;;;13.74;74.88;101852.03;5041272;28;20127;-73
2022/09/01 04:59:42;;;;;;;11.57;3.85;;;;;;;13.75;74.16;101843.81;5050204;28;20025;-73
2022/09/01 05:02:08;;;;;;;15.80;4.22;;;;;;;13.75;73.71;101846.53;5047040;28;20270;-73
2022/09/01 05:04:34;;;;;;;11.77;4.07;;;;;;;13.71;75.70;101838.75;5050573;28;20113;-73
2022/09/01 05:07:01;;;;;;;13.95;4.18;;;;;;;13.69;73.56;101840.66;5032108;28;20113;-73
2022/09/01 05:09:34;;;;;;;10.25;3.85;;;;;;;13.69;74.36;101843.38;5046879;28;20021;-73
2022/09/01 05:12:09;;;;;;;10.38;3.60;;;;;;;13.70;73.88;101845.13;5043824;28;20109;-73
2022/09/01 05:14:47;;;;;;;9.88;3.63;;;;;;;13.69;74.44;101843.38;5031908;28;20037;-73
2022/09/01 05:17:13;;;;;;;11.18;3.70;;;;;;;13.66;74.88;101851.69;5033734;28;20051;-73
2022/09/01 05:19:41;;;;;;;9.88;3.90;;;;;;;13.63;74.57;101848.25;5048315;28;20025;-73
2022/09/01 05:22:09;;;;;;;15.30;4.55;;;;;;;13.67;74.34;101846.19;5044379;28;20506;-73
2022/09/01 05:24:35;;;;;;;10.43;3.90;;;;;;;13.66;75.30;101851.69;5049727;28;20040;-73
2022/09/01 05:27:01;;;;;;;12.52;3.92;;;;;;;13.68;74.71;101850.63;5043168;28;20028;-73
2022/09/01 05:29:28;;;;;;;12.05;4.30;;;;;;;13.67;74.06;101848.03;5047745;28;20461;-73
2022/09/01 05:31:54;;;;;;;12.05;4.30;;;;;;;13.71;73.91;101857.66;5047447;28;20083;-73
2022/09/01 05:34:28;;;;;;;17.80;4.28;;;;;;;13.72;72.78;101853.97;5043942;28;20043;-73
2022/09/01 05:36:56;;;;;;;12.38;4.28;;;;;;;13.74;73.15;101852.03;5041326;28;20138;-73
2022/09/01 05:39:23;;;;;;;14.20;4.57;;;;;;;13.76;73.23;101855.47;5041510;28;20040;-73
2022/09/01 05:41:49;;;;;;;12.85;4.53;;;;;;;13.78;73.93;101851.69;5034108;28;20025;-73
2022/09/01 05:44:17;;;;;;;12.05;4.35;;;;;;;13.81;72.97;101854.19;5043098;28;20032;-73
2022/09/01 05:46:43;;;;;;;16.15;4.95;;;;;;;13.84;72.58;101853.09;5048686;28;20037;-73
2022/09/01 05:49:12;;;;;;;16.98;4.40;;;;;;;13.84;72.41;101858.50;5049754;28;20086;-73
2022/09/01 05:51:42;;;;;;;12.75;4.25;;;;;;;13.91;72.96;101858.91;5049067;28;20452;-73
2022/09/01 05:54:09;;;;;;;15.95;4.82;;;;;;;13.94;73.51;101865.00;5047618;28;20074;-73
2022/09/01 05:56:39;;;;;;;13.15;4.05;;;;;;;13.96;71.03;101854.06;5045178;28;20032;-73
2022/09/01 05:59:05;;;;;;;16.42;5.63;;;;;;;14.01;71.65;101859.13;5049125;28;20111;-73
2022/09/01 06:01:32;;;;;;;13.55;4.22;;;;;;;14.05;72.05;101861.50;5048889;28;20024;-73
2022/09/01 06:04:02;;;;;;;11.48;4.65;;;;;;;14.10;71.33;101858.47;5030138;28;20507;-73
2022/09/01 06:06:35;;;;;;;14.20;4.50;;;;;;;14.12;71.50;101861.94;5031280;28;20151;-73
2022/09/01 06:09:00;;;;;;;11.10;4.38;;;;;;;14.14;70.78;101862.69;5039817;28;20021;-73
2022/09/01 06:11:27;;;;;;;15.10;4.60;;;;;;;14.19;71.21;101865.03;5050941;28;20031;-73
2022/09/01 06:13:55;;;;;;;13.98;4.85;;;;;;;14.22;71.15;101857.59;5050682;28;20025;-73
2022/09/01 06:16:22;;;;;;;17.55;4.80;;;;;;;14.23;70.07;101864.75;5039900;28;20035;-73
2022/09/01 06:18:49;;;;;;;12.80;4.40;;;;;;;14.26;72.48;101866.34;5045857;28;20048;-73
2022/09/01 06:21:15;;;;;;;11.25;4.57;;;;;;;14.27;71.09;101870.78;5050567;28;20033;-73
2022/09/01 06:23:41;;;;;;;12.30;4.40;;;;;;;14.29;70.98;101864.28;5047083;28;20477;-73
2022/09/01 06:26:16;;;;;;;12.85;4.47;;;;;;;14.32;70.79;101866.75;5049905;28;20079;-72
2022/09/01 06:28:42;;;;;;;11.80;4.45;;;;;;;14.35;69.32;101868.38;5036219;28;20395;-72
2022/09/01 06:31:08;;;;;;;13.75;4.88;;;;;;;14.39;69.96;101864.44;5043511;28;20042;-73
2022/09/01 06:33:34;;;;;;;12.65;4.20;;;;;;;14.43;69.22;101871.38;5056178;28;20025;-73
2022/09/01 06:36:02;;;;;;;12.40;4.20;;;;;;;14.48;69.95;101868.31;5048056;28;20042;-73
2022/09/01 06:38:28;;;;;;;11.77;4.45;;;;;;;14.52;68.62;101869.84;5058150;28;20115;-72
2022/09/01 06:41:03;;;;;;;12.95;4.18;;;;;;;14.59;69.12;101873.81;5039191;28;20108;-72
2022/09/01 06:43:29;;;;;;;12.68;4.30;;;;;;;14.64;68.82;101870.78;5042517;28;20029;-72
2022/09/01 06:45:55;;;;;;;12.85;4.40;;;;;;;14.66;69.26;101871.56;5055141;28;20083;-72
2022/09/01 06:48:22;;;;;;;11.82;4.30;;;;;;;14.74;69.76;101868.28;5049595;28;20215;-72
2022/09/01 06:50:47;;;;;;;11.15;4.22;;;;;;;14.78;68.38;101869.78;5049354;28;20044;-72
2022/09/01 06:53:17;;;;;;;15.85;4.95;;;;;;;14.85;68.66;101873.75;5049592;28;20087;-72
2022/09/01 06:55:45;;;;;;;11.65;4.38;;;;;;;14.91;69.95;101870.59;5041267;28;20090;-73
2022/09/01 06:58:14;;;;;;;10.85;4.07;;;;;;;14.97;67.78;101869.25;5037511;28;20032;-73
2022/09/01 07:00:41;;;;;;;12.95;4.78;;;;;;;15.01;68.00;101866.19;5030441;28;20029;-73
2022/09/01 07:03:12;;;;;;;17.73;4.57;;;;;;;15.09;68.65;101879.13;5038537;28;20044;-73
2022/09/01 07:05:44;;;;;;;16.75;5.47;;;;;;;15.16;68.04;101882.25;5037765;28;20029;-71
2022/09/01 07:08:16;;;;;;;14.80;4.57;;;;;;;15.22;67.79;101880.94;5031035;28;20033;-72
2022/09/01 07:10:52;;;;;;;15.80;4.80;;;;;;;15.28;67.97;101889.44;5029997;28;20474;-71
2022/09/01 07:13:24;;;;;;;13.15;4.53;;;;;;;15.34;67.13;101882.69;5043294;28;20025;-71
2022/09/01 07:15:52;;;;;;;15.15;4.65;;;;;;;15.38;66.35;101895.88;5048131;28;20133;-71
2022/09/01 07:18:24;;;;;;;11.75;3.97;;;;;;;15.46;67.18;101898.00;5042371;28;20026;-71
2022/09/01 07:20:50;;;;;;;16.55;5.25;;;;;;;15.51;67.25;101898.50;5039082;28;20029;-70
2022/09/01 07:23:16;;;;;;;16.33;4.95;;;;;;;15.58;66.84;101896.19;5038456;28;20037;-70
2022/09/01 07:25:46;;;;;;;11.98;4.63;;;;;;;15.63;66.71;101893.97;5034836;28;20036;-71
2022/09/01 07:28:14;;;;;;;11.98;4.38;;;;;;;15.68;65.98;101891.78;5035339;28;20067;-71
2022/09/01 07:30:47;;;;;;;12.73;4.57;;;;;;;15.73;66.19;101894.13;5047586;28;20036;-71
2022/09/01 07:33:22;;;;;;;17.05;4.65;;;;;;;15.80;66.46;101894.50;5036097;28;20028;-71
2022/09/01 07:35:50;;;;;;;11.25;4.50;;;;;;;15.86;67.09;101892.19;5038653;28;20521;-71
2022/09/01 07:38:18;;;;;;;11.95;4.28;;;;;;;15.91;66.86;101891.81;5048570;28;20108;-71
2022/09/01 07:40:45;;;;;;;11.57;4.40;;;;;;;15.99;67.79;101885.78;5047627;28;20043;-71
2022/09/01 07:43:21;;;;;;;12.73;4.78;;;;;;;16.05;67.55;101890.72;5046733;28;20037;-71
2022/09/01 07:45:48;;;;;;;10.30;4.28;;;;;;;16.11;67.26;101897.53;5043342;28;20037;-71
2022/09/01 07:48:17;;;;;;;11.25;3.90;;;;;;;16.17;66.16;101883.47;5047917;28;20039;-71
2022/09/01 07:50:46;;;;;;;10.93;3.83;;;;;;;16.25;66.20;101891.81;5050407;28;20021;-71
2022/09/01 07:53:14;;;;;;;11.27;4.07;;;;;;;16.31;64.89;101898.59;5049669;28;20059;-71
2022/09/01 07:55:40;;;;;;;12.27;4.07;;;;;;;16.38;65.28;101888.97;5048438;28;20028;-71
2022/09/01 07:58:05;;;;;;;12.65;3.85;;;;;;;16.42;65.23;101890.47;5049189;28;20017;-71
2022/09/01 08:00:32;;;;;;;12.52;4.15;;;;;;;16.53;64.95;101887.75;5056018;28;20431;-71
2022/09/01 08:02:58;;;;;;;18.27;5.15;;;;;;;16.57;64.48;101889.22;5046066;28;20033;-71
2022/09/01 08:05:25;;;;;;;10.15;3.97;;;;;;;16.63;64.86;101893.25;5047777;28;20484;-71
2022/09/01 08:07:51;;;;;;;10.73;4.15;;;;;;;16.70;66.17;101883.63;5048297;28;20025;-71
2022/09/01 08:10:16;;;;;;;14.23;3.60;;;;;;;16.75;65.96;101889.53;5049510;28;20155;-71
2022/09/01 08:12:42;;;;;;;14.95;4.35;;;;;;;16.82;65.52;101880.88;5049874;28;20250;-71
2022/09/01 08:15:10;;;;;;;15.48;4.63;;;;;;;16.89;64.66;101882.97;5048848;28;20032;-71
2022/09/01 08:17:37;;;;;;;11.25;4.00;;;;;;;16.91;64.91;101885.56;5048324;28;20159;-71
2022/09/01 08:20:06;;;;;;;14.88;4.85;;;;;;;17.02;64.46;101887.38;5039624;28;20037;-71
2022/09/01 08:22:32;;;;;;;7.63;3.55;;;;;;;17.03;64.75;101889.97;5046695;28;20166;-71
2022/09/01 08:24:58;;;;;;;10.40;3.78;;;;;;;17.07;64.30;101896.88;5045968;28;20116;-71
2022/09/01 08:27:23;;;;;;;10.43;3.95;;;;;;;17.12;64.89;101891.91;5048764;28;20024;-71
2022/09/01 08:29:48;;;;;;;10.57;3.90;;;;;;;17.19;65.70;101892.25;5045467;28;20291;-72
2022/09/01 08:32:13;;;;;;;9.65;3.53;;;;;;;17.25;64.29;101888.16;5048223;28;20033;-71
2022/09/01 08:34:39;;;;;;;11.88;4.53;;;;;;;17.32;63.51;101883.94;5047288;28;20049;-71
2022/09/01 08:37:05;;;;;;;13.00;3.78;;;;;;;17.33;64.28;101887.50;5046839;28;20483;-71
2022/09/01 08:39:31;;;;;;;12.02;3.63;;;;;;;17.39;64.48;101887.81;5046457;28;20434;-71
2022/09/01 08:42:14;;;;;;;12.88;4.35;;;;;;;17.47;64.92;101885.31;5044002;28;20029;-71
2022/09/01 08:44:52;;;;;;;13.32;3.83;;;;;;;17.55;64.74;101884.63;5044555;28;20111;-71
2022/09/01 08:47:18;;;;;;;13.32;4.45;;;;;;;17.63;63.49;101889.44;5042073;28;20314;-71
2022/09/01 08:49:46;;;;;;;10.98;3.47;;;;;;;17.63;64.69;101892.16;5042866;28;20513;-71
2022/09/01 08:52:32;;;;;;;11.55;3.75;;;;;;;17.67;64.71;101893.59;5047190;28;20036;-72
2022/09/01 08:55:24;;;;;;;12.75;4.47;;;;;;;17.77;64.47;101888.22;5047284;28;20724;-71
2022/09/01 08:57:54;;;;;;;14.15;4.25;;;;;;;17.86;64.33;101892.84;5045396;28;20051;-70
2022/09/01 09:00:23;;;;;;;9.80;4.00;;;;;;;17.96;64.61;101874.75;5050245;28;20319;-70
2022/09/01 09:03:19;;;;;;;9.55;3.60;;;;;;;18.03;64.16;101887.81;5055001;28;20031;-71
2022/09/01 09:06:12;;;;;;;10.45;3.65;;;;;;;18.10;63.26;101884.41;5049869;28;20064;-71
2022/09/01 09:08:54;;;;;;;6.28;2.72;;;;;;;18.13;63.99;101888.72;5051412;28;20044;-73
2022/09/01 09:11:25;;;;;;;11.82;3.47;;;;;;;18.16;63.85;101883.00;5049008;28;20376;-73
2022/09/01 09:14:10;;;;;;;8.63;2.95;;;;;;;18.22;64.13;101871.56;5050285;28;20056;-74
2022/09/01 09:16:39;;;;;;;10.32;3.40;;;;;;;18.28;63.35;101881.03;5049334;28;20032;-74
2022/09/01 09:19:18;;;;;;;4.93;2.70;;;;;;;18.32;63.72;101871.59;5048448;28;20098;-74
2022/09/01 09:21:46;;;;;;;15.40;5.38;;;;;;;18.45;62.76;101872.22;5047393;28;21226;-74
2022/09/01 09:24:20;;;;;;;13.77;4.38;;;;;;;18.51;63.50;101868.94;5048835;28;20033;-74
2022/09/01 09:26:54;;;;;;;7.82;3.35;;;;;;;18.56;63.49;101873.09;5042229;28;20037;-74
2022/09/01 09:29:21;;;;;;;9.18;3.22;;;;;;;18.60;63.14;101869.09;5049855;28;20040;-74
2022/09/01 09:31:47;;;;;;;13.30;4.47;;;;;;;18.79;63.43;101869.13;5048784;28;20102;-74
2022/09/01 09:34:29;;;;;;;11.25;3.55;;;;;;;18.76;62.63;101865.84;5044973;28;20123;-74
2022/09/01 09:36:54;;;;;;;11.02;3.83;;;;;;;18.85;61.41;101852.19;5047637;28;20033;-74
2022/09/01 09:39:19;;;;;;;7.18;2.88;;;;;;;18.84;63.04;101855.94;5047807;28;20036;-74
2022/09/01 09:42:06;;;;;;;5.40;2.78;;;;;;;18.87;63.32;101854.81;5048160;28;20039;-74
2022/09/01 09:44:31;;;;;;;10.30;2.78;;;;;;;18.91;63.17;101849.97;5047471;28;20510;-74
2022/09/01 09:46:57;;;;;;;12.65;4.10;;;;;;;19.01;61.19;101845.38;5046791;28;20024;-74
2022/09/01 09:49:31;;;;;;;6.03;2.90;;;;;;;19.06;59.28;101853.09;5047764;28;20074;-74
2022/09/01 09:52:11;;;;;;;11.00;3.45;;;;;;;19.13;60.56;101843.34;5067892;28;20102;-74
2022/09/01 09:54:39;;;;;;;6.28;2.92;;;;;;;19.20;61.24;101844.50;5046305;28;20374;-74
2022/09/01 09:57:10;;;;;;;9.05;3.10;;;;;;;19.20;60.99;101845.34;5043858;28;20032;-74
2022/09/01 09:59:42;;;;;;;5.15;2.40;;;;;;;19.19;62.86;101840.91;5047213;28;20071;-74
2022/09/01 10:02:25;;;;;;;6.00;2.90;;;;;;;19.37;58.61;101842.88;5049025;28;20099;-74
2022/09/01 10:04:52;;;;;;;9.98;2.92;;;;;;;19.47;57.27;101840.16;5044991;28;20119;-74
2022/09/01 10:07:36;;;;;;;4.95;2.60;;;;;;;19.53;57.88;101839.56;5047490;28;20021;-74
2022/09/01 10:10:06;;;;;;;7.28;2.85;;;;;;;19.59;59.16;101838.09;5043844;28;20024;-74
2022/09/01 10:12:32;;;;;;;8.88;2.97;;;;;;;19.64;55.29;101836.66;5041530;28;20032;-74
2022/09/01 10:15:02;;;;;;;6.53;2.40;;;;;;;19.64;56.67;101835.81;5046076;28;20029;-74
2022/09/01 10:17:41;;;;;;;6.13;2.53;;;;;;;19.68;56.06;101826.34;5057163;28;20033;-74
2022/09/01 10:20:13;;;;;;;8.57;2.60;;;;;;;19.77;55.24;101822.69;5050181;28;20380;-74
2022/09/01 10:22:40;;;;;;;6.85;2.80;;;;;;;19.88;53.52;101825.28;5046158;28;20044;-74
2022/09/01 10:25:07;;;;;;;6.53;2.70;;;;;;;19.89;54.19;101826.13;5045334;28;20043;-74
2022/09/01 10:27:37;;;;;;;6.20;2.70;;;;;;;19.98;49.59;101819.75;5048958;28;20041;-74
2022/09/01 10:30:17;;;;;;;8.07;2.50;;;;;;;20.11;50.35;101827.59;5048634;28;20020;-74
2022/09/01 10:32:50;;;;;;;5.32;2.15;;;;;;;20.07;53.72;101821.59;5046240;28;20032;-74
2022/09/01 10:35:22;;;;;;;8.73;2.67;;;;;;;20.15;48.85;101823.56;5045087;28;20568;-74
2022/09/01 10:37:48;;;;;;;4.25;2.00;;;;;;;20.17;48.95;101824.25;5048565;28;20194;-74
2022/09/01 10:40:44;;;;;;;6.30;2.70;;;;;;;20.22;49.36;101821.94;5048690;28;20036;-74
2022/09/01 10:43:28;;;;;;;18.35;4.22;;;;;;;20.37;49.57;101824.16;5048448;28;20464;-74
2022/09/01 10:45:54;;;;;;;11.60;3.30;;;;;;;20.50;46.01;101831.97;5045389;28;20025;-74
2022/09/01 10:48:20;;;;;;;9.82;2.65;;;;;;;20.45;50.48;101823.41;5040874;28;20029;-73
2022/09/01 10:50:51;;;;;;;9.73;2.60;;;;;;;20.44;53.64;101822.53;5045017;28;20127;-73
2022/09/01 10:53:34;;;;;;;4.40;2.15;;;;;;;20.49;49.97;101828.38;5048265;28;20107;-74
2022/09/01 10:56:18;;;;;;;6.90;2.42;;;;;;;20.55;47.38;101822.31;5047406;28;20033;-74
2022/09/01 10:59:21;;;;;;;6.75;2.65;;;;;;;20.62;47.37;101824.44;5047113;28;20086;-74
2022/09/01 11:01:46;;;;;;;6.40;2.38;;;;;;;20.63;50.67;101816.09;5046292;28;20441;-74
2022/09/01 11:04:28;;;;;;;4.35;2.42;;;;;;;20.66;50.52;101821.28;5041134;28;20033;-74
2022/09/01 11:06:57;;;;;;;7.07;2.53;;;;;;;20.72;47.06;101819.78;5044202;28;20028;-74
2022/09/01 11:09:37;;;;;;;6.70;2.55;;;;;;;20.72;49.58;101814.34;5046899;28;20599;-74
2022/09/01 11:12:21;;;;;;;3.83;2.22;;;;;;;20.79;47.83;101809.94;5048902;28;20025;-74
2022/09/01 11:15:30;;;;;;;8.25;2.45;;;;;;;20.80;47.55;101819.84;5051906;28;20130;-74
2022/09/01 11:17:58;;;;;;;3.80;2.08;;;;;;;20.78;52.24;101811.81;5037927;28;20039;-74
2022/09/01 11:20:28;;;;;;;5.88;2.20;;;;;;;20.76;49.79;101805.66;5045102;28;20032;-74
2022/09/01 11:22:56;;;;;;;6.90;2.50;;;;;;;20.79;51.43;101804.47;5051461;28;20025;-74
2022/09/01 11:25:43;;;;;;;8.68;2.50;;;;;;;20.83;50.28;101803.16;5046037;28;20032;-74
2022/09/01 11:28:30;;;;;;;4.43;2.30;;;;;;;20.88;48.52;101806.28;5047803;28;20043;-74
2022/09/01 11:31:07;;;;;;;7.15;2.30;;;;;;;20.93;47.82;101798.44;5047364;28;20028;-74
2022/09/01 11:33:51;;;;;;;7.80;2.50;;;;;;;21.03;47.39;101789.31;5046767;28;20369;-74
2022/09/01 11:36:48;;;;;;;8.50;2.50;;;;;;;21.06;49.61;101789.00;5050450;28;20083;-74
2022/09/01 11:39:16;;;;;;;11.52;3.22;;;;;;;21.13;45.84;101793.66;5051930;28;20048;-74
2022/09/01 11:42:03;;;;;;;9.63;2.42;;;;;;;21.18;44.67;101786.88;5045945;28;20029;-74
2022/09/01 11:44:37;;;;;;;9.10;3.13;;;;;;;21.20;45.41;101779.34;5052156;28;20028;-74